Time;durP1;ratioP1;P1;durP2;ratioP2;P2;SDS_P1;SDS_P2;PMS_P1;PMS_P2;Temp;Humidity;BMP_temperature;BMP_pressure;BME280_temperature;BME280_humidity;BME280_pressure;Samples;Min_cycle;Max_cycle;Signal;HPM_P1;HPM_P2
2022/01/15 00:00:36;;;;;;;77.80;56.55;;;7.00;68.20;;;;;;5055169;28;20542;-81
2022/01/15 00:03:07;;;;;;;79.03;56.67;;;7.00;68.30;;;;;;5055105;28;20033;-81
2022/01/15 00:05:34;;;;;;;79.55;57.15;;;7.10;68.40;;;;;;5037308;28;20041;-81
2022/01/15 00:08:01;;;;;;;83.63;55.03;;;7.00;68.40;;;;;;5054317;28;20079;-81
2022/01/15 00:10:29;;;;;;;78.18;55.40;;;7.10;68.30;;;;;;5055753;28;20480;-82
2022/01/15 00:12:59;;;;;;;83.22;56.13;;;7.10;68.30;;;;;;5055313;28;20043;-82
2022/01/15 00:15:29;;;;;;;;;;;7.10;68.30;;;;;;5037878;28;20041;-82
2022/01/15 00:20:23;;;;;;;82.60;56.80;;;7.10;68.10;;;;;;5055267;28;20029;-81
2022/01/15 00:22:49;;;;;;;84.60;59.28;;;7.10;68.10;;;;;;5054667;28;20492;-81
2022/01/15 00:25:16;;;;;;;82.35;59.00;;;7.10;68.10;;;;;;5055417;28;20440;-81
2022/01/15 00:27:42;;;;;;;86.40;58.22;;;7.10;68.00;;;;;;5053191;28;20440;-81
2022/01/15 00:30:08;;;;;;;77.70;56.35;;;7.10;67.90;;;;;;5052644;28;20044;-81
2022/01/15 00:32:34;;;;;;;81.72;58.65;;;7.10;67.80;;;;;;5052755;28;20037;-81
2022/01/15 00:35:00;;;;;;;82.65;57.80;;;7.20;68.00;;;;;;5054516;28;20063;-81
2022/01/15 00:37:31;;;;;;;83.95;58.72;;;7.10;68.00;;;;;;5054626;28;20029;-81
2022/01/15 00:39:58;;;;;;;83.45;58.67;;;7.10;68.10;;;;;;5054248;28;20362;-81
2022/01/15 00:42:25;;;;;;;89.90;58.85;;;7.10;68.20;;;;;;5054326;28;20037;-80
2022/01/15 00:44:51;;;;;;;85.97;58.65;;;7.10;68.20;;;;;;5036773;28;20485;-81
2022/01/15 00:47:17;;;;;;;84.13;59.80;;;7.10;68.10;;;;;;5054368;28;20037;-81
2022/01/15 00:49:43;;;;;;;83.88;58.78;;;7.10;68.20;;;;;;5053715;28;20495;-82
2022/01/15 00:52:09;;;;;;;84.65;59.42;;;7.10;68.20;;;;;;5054376;28;20037;-82
2022/01/15 00:54:34;;;;;;;79.53;58.92;;;7.10;68.20;;;;;;5036490;28;20051;-82
2022/01/15 00:57:00;;;;;;;87.63;61.00;;;7.10;68.20;;;;;;5036515;28;20041;-82
2022/01/15 00:59:26;;;;;;;85.38;61.20;;;7.10;68.20;;;;;;5053963;28;20068;-82
2022/01/15 01:01:52;;;;;;;83.07;58.83;;;7.00;68.20;;;;;;5054138;28;20497;-82
2022/01/15 01:04:18;;;;;;;80.55;56.60;;;7.00;68.10;;;;;;5054246;28;20037;-80
2022/01/15 01:06:43;;;;;;;81.35;59.58;;;7.00;68.20;;;;;;5054179;28;20041;-80
2022/01/15 01:09:09;;;;;;;89.97;60.90;;;7.00;68.20;;;;;;5054359;28;20037;-79
2022/01/15 01:11:54;;;;;;;80.95;57.35;;;7.00;68.20;;;;;;5054539;28;20041;-80
2022/01/15 01:20:11;;;;;;;82.32;56.60;;;7.00;68.30;;;;;;5054373;28;20039;-80
2022/01/15 01:25:20;;;;;;;81.35;55.47;;;7.00;68.50;;;;;;5054172;28;20043;-79
2022/01/15 01:27:50;;;;;;;81.50;58.22;;;7.00;68.50;;;;;;5035613;28;20128;-79
2022/01/15 01:30:25;;;;;;;78.45;56.53;;;6.90;68.50;;;;;;5054195;28;20086;-78
2022/01/15 01:35:40;;;;;;;81.57;56.95;;;6.90;68.70;;;;;;5053841;28;20072;-78
2022/01/15 01:40:41;;;;;;;81.53;56.10;;;6.90;68.60;;;;;;5054182;28;20124;-78
2022/01/15 01:45:51;;;;;;;82.55;56.03;;;6.90;68.80;;;;;;5053617;28;20040;-78
2022/01/15 01:48:16;;;;;;;82.53;58.63;;;6.80;69.00;;;;;;5053466;28;20033;-79
2022/01/15 01:50:42;;;;;;;80.53;56.63;;;6.90;69.20;;;;;;5053634;28;20366;-78
2022/01/15 01:53:09;;;;;;;78.93;58.17;;;6.80;69.00;;;;;;5053297;28;20156;-78
2022/01/15 01:55:35;;;;;;;78.70;54.97;;;6.80;69.10;;;;;;5053609;28;20511;-78
2022/01/15 01:58:01;;;;;;;81.93;57.60;;;6.80;69.10;;;;;;5053104;28;20488;-78
2022/01/15 02:00:29;;;;;;;77.90;55.72;;;6.80;69.20;;;;;;5053639;28;20087;-79
2022/01/15 02:02:55;;;;;;;81.25;56.35;;;6.90;69.20;;;;;;5052429;28;20071;-80
2022/01/15 02:05:22;;;;;;;84.15;58.35;;;6.80;69.30;;;;;;5053552;28;20460;-81
2022/01/15 02:07:48;;;;;;;76.28;54.63;;;6.80;69.60;;;;;;5052811;28;20041;-80
2022/01/15 02:10:17;;;;;;;83.50;57.47;;;6.80;69.60;;;;;;5035087;28;20041;-81
2022/01/15 02:12:45;;;;;;;80.70;57.38;;;6.80;69.80;;;;;;5052654;28;20041;-81
2022/01/15 02:15:18;;;;;;;79.75;56.42;;;6.80;69.70;;;;;;5052805;28;20051;-81
2022/01/15 02:17:45;;;;;;;78.03;57.30;;;6.80;69.50;;;;;;5052638;28;20051;-82
2022/01/15 02:20:34;;;;;;;78.50;57.35;;;6.80;69.30;;;;;;5052811;28;20033;-82
2022/01/15 02:26:09;;;;;;;80.40;55.95;;;6.80;69.30;;;;;;5053300;28;20047;-82
2022/01/15 02:28:40;;;;;;;79.28;56.88;;;6.80;69.40;;;;;;5049497;28;20512;-82
2022/01/15 02:31:15;;;;;;;82.13;57.13;;;6.70;69.50;;;;;;5037531;28;20037;-82
2022/01/15 02:33:43;;;;;;;79.50;56.67;;;6.70;69.50;;;;;;5053072;28;20116;-82
2022/01/15 02:36:15;;;;;;;77.85;56.63;;;6.70;69.50;;;;;;5052240;28;20036;-82
2022/01/15 02:38:42;;;;;;;79.70;55.15;;;6.70;69.50;;;;;;5052519;28;20120;-82
2022/01/15 02:41:08;;;;;;;77.45;56.33;;;6.80;69.50;;;;;;5052247;28;20561;-82
2022/01/15 02:43:34;;;;;;;85.80;58.40;;;6.70;69.40;;;;;;5053010;28;20079;-82
2022/01/15 02:46:45;;;;;;;76.22;55.40;;;6.70;69.40;;;;;;5052784;28;20532;-82
2022/01/15 02:48:59;;;;;;;79.15;54.75;;;6.70;69.50;;;;;;5049230;28;20096;-82
2022/01/15 02:51:27;;;;;;;77.57;54.13;;;6.70;69.60;;;;;;5051032;28;20052;-82
2022/01/15 02:53:56;;;;;;;79.22;54.85;;;6.70;69.70;;;;;;5051617;28;20048;-81
2022/01/15 02:56:27;;;;;;;81.82;55.97;;;6.70;69.70;;;;;;5051905;28;20041;-82
2022/01/15 02:58:53;;;;;;;79.30;56.03;;;6.70;69.60;;;;;;5052686;28;20037;-82
2022/01/15 03:01:19;;;;;;;75.60;54.28;;;6.70;69.60;;;;;;5049590;28;20098;-82
2022/01/15 03:03:46;;;;;;;78.28;54.92;;;6.60;69.60;;;;;;5049848;28;20041;-81
2022/01/15 03:06:14;;;;;;;81.40;55.17;;;6.60;69.60;;;;;;5052304;28;20373;-82
2022/01/15 03:08:41;;;;;;;78.78;56.10;;;6.60;69.70;;;;;;5052368;28;20068;-81
2022/01/15 03:11:08;;;;;;;79.10;54.55;;;6.60;69.80;;;;;;5034113;28;20047;-81
2022/01/15 03:13:36;;;;;;;74.32;53.55;;;6.60;69.90;;;;;;5053771;28;20041;-80
2022/01/15 03:16:02;;;;;;;83.03;56.90;;;6.60;70.00;;;;;;5055834;28;20063;-82
2022/01/15 03:18:28;;;;;;;83.13;57.25;;;6.60;70.20;;;;;;5038714;28;20480;-82
2022/01/15 03:20:54;;;;;;;81.90;57.33;;;6.60;70.20;;;;;;5038009;28;20060;-82
2022/01/15 03:23:20;;;;;;;80.13;56.22;;;6.60;70.70;;;;;;5056122;28;20044;-82
2022/01/15 03:25:46;;;;;;;78.45;54.97;;;6.60;70.10;;;;;;5055421;28;20036;-83
2022/01/15 03:28:11;;;;;;;78.15;54.88;;;6.60;70.20;;;;;;5055556;28;20049;-83
2022/01/15 03:30:38;;;;;;;81.00;56.67;;;6.60;70.10;;;;;;5037947;28;20045;-82
2022/01/15 03:33:04;;;;;;;74.65;56.10;;;6.60;70.00;;;;;;5052594;28;20116;-82
2022/01/15 03:35:30;;;;;;;75.22;54.65;;;6.60;70.10;;;;;;5055702;28;20037;-83
2022/01/15 03:37:56;;;;;;;77.80;55.60;;;6.50;70.10;;;;;;5055314;28;20039;-82
2022/01/15 03:40:22;;;;;;;77.78;54.08;;;6.50;70.30;;;;;;5055849;28;20129;-82
2022/01/15 03:42:48;;;;;;;75.00;53.45;;;6.50;70.50;;;;;;5054819;28;20091;-82
2022/01/15 03:45:15;;;;;;;74.22;54.00;;;6.60;70.50;;;;;;5055410;28;20049;-83
2022/01/15 03:47:47;;;;;;;80.90;54.90;;;6.50;70.50;;;;;;5056054;28;20048;-83
2022/01/15 03:50:14;;;;;;;72.20;51.50;;;6.50;70.50;;;;;;5055802;28;20071;-82
2022/01/15 03:52:41;;;;;;;77.00;53.15;;;6.50;70.50;;;;;;5055004;28;20112;-83
2022/01/15 03:55:08;;;;;;;72.10;51.85;;;6.50;70.80;;;;;;5038064;28;20500;-82
2022/01/15 03:57:36;;;;;;;72.05;53.00;;;6.50;70.90;;;;;;5055205;28;20045;-82
2022/01/15 04:00:05;;;;;;;76.30;54.28;;;6.50;70.80;;;;;;5055636;28;20067;-82
2022/01/15 04:02:31;;;;;;;75.05;53.25;;;6.50;70.80;;;;;;5037007;28;20485;-82
2022/01/15 04:04:57;;;;;;;75.25;52.97;;;6.50;70.90;;;;;;5054798;28;20029;-82
2022/01/15 04:07:22;;;;;;;69.20;49.80;;;6.50;70.90;;;;;;5036940;28;20037;-82
2022/01/15 04:09:48;;;;;;;68.72;51.40;;;6.50;70.80;;;;;;5054899;28;20044;-82
2022/01/15 04:12:14;;;;;;;72.78;52.03;;;6.40;70.70;;;;;;5054716;28;20554;-82
2022/01/15 04:14:40;;;;;;;76.00;52.90;;;6.50;70.80;;;;;;5054775;28;20094;-82
2022/01/15 04:17:06;;;;;;;70.82;51.35;;;6.40;70.80;;;;;;5055219;28;20028;-82
2022/01/15 04:19:33;;;;;;;73.95;53.05;;;6.40;70.80;;;;;;5054787;28;20029;-82
2022/01/15 04:21:59;;;;;;;76.50;53.58;;;6.40;70.70;;;;;;5036681;28;20061;-81
2022/01/15 04:24:25;;;;;;;74.55;53.25;;;6.50;70.70;;;;;;5054677;28;20560;-82
2022/01/15 04:26:51;;;;;;;76.03;54.25;;;6.40;70.50;;;;;;5054705;28;20075;-82
2022/01/15 04:29:16;;;;;;;79.63;55.47;;;6.50;70.50;;;;;;5022866;28;20097;-82
2022/01/15 04:31:48;;;;;;;77.68;53.47;;;6.40;70.50;;;;;;5054657;28;20044;-82
2022/01/15 04:34:26;;;;;;;80.68;57.05;;;6.40;70.20;;;;;;5037070;28;20037;-82
2022/01/15 04:36:53;;;;;;;83.15;57.58;;;6.40;70.00;;;;;;5054606;28;20108;-82
2022/01/15 04:39:19;;;;;;;92.55;60.67;;;6.40;69.90;;;;;;5054907;28;20037;-82
2022/01/15 04:41:45;;;;;;;89.85;63.38;;;6.40;69.80;;;;;;5054985;28;20040;-83
2022/01/15 04:44:11;;;;;;;84.28;60.08;;;6.30;70.20;;;;;;5054925;28;20037;-83
2022/01/15 04:46:38;;;;;;;83.38;58.15;;;6.20;69.80;;;;;;5035519;28;20362;-83
2022/01/15 04:49:05;;;;;;;88.65;59.70;;;6.10;70.30;;;;;;5049917;28;20131;-81
2022/01/15 04:51:33;;;;;;;86.93;61.35;;;6.00;70.30;;;;;;5036174;28;20489;-80
2022/01/15 04:53:58;;;;;;;86.63;60.33;;;6.00;70.20;;;;;;5045317;28;20045;-80
2022/01/15 04:56:24;;;;;;;86.68;59.75;;;6.00;70.20;;;;;;5052941;28;20116;-80
2022/01/15 04:58:51;;;;;;;83.32;59.25;;;6.00;70.20;;;;;;5037055;28;20033;-79
2022/01/15 05:01:20;;;;;;;82.63;58.13;;;6.00;70.30;;;;;;5037687;28;20111;-80
2022/01/15 05:03:46;;;;;;;82.28;57.88;;;6.10;70.30;;;;;;5054852;28;20029;-82
2022/01/15 05:06:12;;;;;;;77.15;55.42;;;6.10;70.30;;;;;;5036995;28;20431;-82
2022/01/15 05:08:40;;;;;;;79.03;54.38;;;6.10;70.20;;;;;;5056362;28;20393;-83
2022/01/15 05:11:20;;;;;;;79.38;53.85;;;6.10;69.90;;;;;;5054114;28;20029;-82
2022/01/15 05:13:46;;;;;;;;;;;6.20;69.60;;;;;;5037550;28;20642;-83
2022/01/15 05:16:17;;;;;;;69.43;46.85;;;6.20;69.20;;;;;;5055170;28;19915;-82
2022/01/15 05:18:43;;;;;;;70.82;51.22;;;6.20;68.90;;;;;;5054790;28;20064;-83
2022/01/15 05:21:12;;;;;;;71.70;49.15;;;6.20;68.60;;;;;;5054999;28;20029;-82
2022/01/15 05:23:40;;;;;;;76.82;54.00;;;6.20;68.40;;;;;;5054813;28;20122;-83
2022/01/15 05:26:07;;;;;;;73.82;49.97;;;6.20;68.50;;;;;;5054091;28;20572;-82
2022/01/15 05:28:32;;;;;;;78.13;54.45;;;6.10;68.60;;;;;;5026805;28;20052;-82
2022/01/15 05:30:58;;;;;;;74.18;54.10;;;6.10;68.70;;;;;;5053272;28;20044;-82
2022/01/15 05:33:24;;;;;;;79.40;53.63;;;6.00;68.60;;;;;;5053363;28;20052;-82
2022/01/15 05:36:02;;;;;;;77.40;54.83;;;6.00;68.80;;;;;;5053293;28;20033;-83
2022/01/15 05:38:28;;;;;;;75.28;52.70;;;5.90;69.00;;;;;;5053671;28;20040;-82
2022/01/15 05:40:57;;;;;;;74.20;53.03;;;5.90;69.00;;;;;;5034913;28;20041;-82
2022/01/15 05:43:23;;;;;;;72.88;52.03;;;5.90;69.00;;;;;;5054485;28;20380;-82
2022/01/15 05:45:49;;;;;;;69.88;49.83;;;5.80;68.90;;;;;;5053303;28;20037;-83
2022/01/15 05:48:16;;;;;;;69.85;48.60;;;5.80;69.00;;;;;;5036256;28;20059;-83
2022/01/15 05:50:42;;;;;;;73.20;50.72;;;5.70;69.00;;;;;;5034473;28;20029;-83
2022/01/15 05:53:08;;;;;;;72.25;51.10;;;5.70;69.10;;;;;;5052902;28;20091;-83
2022/01/15 05:55:34;;;;;;;71.78;51.10;;;5.70;69.10;;;;;;5053956;28;20124;-81
2022/01/15 05:57:59;;;;;;;70.47;50.03;;;5.70;69.00;;;;;;5033063;28;20072;-81
2022/01/15 06:00:29;;;;;;;65.50;47.97;;;5.80;69.00;;;;;;5033483;28;20083;-85
2022/01/15 06:02:55;;;;;;;63.65;46.08;;;5.80;68.80;;;;;;5032896;28;20424;-83
2022/01/15 06:05:21;;;;;;;64.50;45.00;;;5.80;68.50;;;;;;5033957;28;20048;-82
2022/01/15 06:07:47;;;;;;;59.67;43.30;;;5.90;68.30;;;;;;5034038;28;20076;-83
2022/01/15 06:10:12;;;;;;;67.82;45.88;;;5.90;68.00;;;;;;5033800;28;20045;-82
2022/01/15 06:12:43;;;;;;;60.03;45.40;;;5.90;67.90;;;;;;5033853;28;20049;-82
2022/01/15 06:15:15;;;;;;;;;;;5.90;68.00;;;;;;5018201;28;20037;-81
2022/01/15 06:17:43;;;;;;;57.30;40.50;;;5.80;68.20;;;;;;5034156;28;20522;-81
2022/01/15 06:20:13;;;;;;;60.25;43.55;;;5.90;68.30;;;;;;5032155;28;20077;-80
2022/01/15 06:22:43;;;;;;;61.63;43.70;;;5.90;68.20;;;;;;5033762;28;20029;-80
2022/01/15 06:25:09;;;;;;;56.47;40.35;;;5.90;68.10;;;;;;5032487;28;20045;-81
2022/01/15 06:27:39;;;;;;;60.17;42.95;;;5.90;68.00;;;;;;5032371;28;20030;-81
2022/01/15 06:30:08;;;;;;;59.63;43.10;;;5.90;68.00;;;;;;5032504;28;20448;-90
2022/01/15 06:32:36;;;;;;;66.25;43.60;;;5.90;68.30;;;;;;5035719;28;20065;-89
2022/01/15 06:35:12;;;;;;;61.90;44.05;;;6.00;68.30;;;;;;5034657;28;20092;-88
2022/01/15 06:37:41;;;;;;;62.10;44.47;;;5.90;69.30;;;;;;5032853;28;20055;-85
2022/01/15 06:40:10;;;;;;;62.83;44.55;;;6.00;68.80;;;;;;5034588;28;20079;-87
2022/01/15 06:42:37;;;;;;;60.53;43.45;;;6.00;68.50;;;;;;5034874;28;20040;-87
2022/01/15 06:45:04;;;;;;;61.35;44.83;;;6.00;68.30;;;;;;5034703;28;20037;-87
2022/01/15 06:47:30;;;;;;;60.47;43.95;;;6.00;68.30;;;;;;5035876;28;20044;-86
2022/01/15 06:49:56;;;;;;;58.30;43.13;;;6.00;68.30;;;;;;5039223;28;20041;-88
2022/01/15 06:52:24;;;;;;;61.20;43.05;;;6.00;68.40;;;;;;5038323;28;20355;-88
2022/01/15 06:54:51;;;;;;;62.03;45.22;;;6.00;68.50;;;;;;5038159;28;20045;-89
2022/01/15 06:57:16;;;;;;;58.83;42.70;;;6.00;68.40;;;;;;5052134;28;20116;-89
2022/01/15 06:59:45;;;;;;;59.50;42.80;;;6.00;68.30;;;;;;5058850;28;20111;-89
2022/01/15 07:02:14;;;;;;;56.65;41.97;;;6.00;68.30;;;;;;5040653;28;20033;-89
2022/01/15 07:04:40;;;;;;;55.95;41.58;;;6.00;68.40;;;;;;5039708;28;20037;-89
2022/01/15 07:07:06;;;;;;;63.33;42.75;;;6.00;68.50;;;;;;5049865;28;20442;-83
2022/01/15 07:09:33;;;;;;;58.50;41.38;;;6.00;68.70;;;;;;5057296;28;20116;-83
2022/01/15 07:12:05;;;;;;;56.53;40.72;;;6.00;68.70;;;;;;5052002;28;20030;-85
2022/01/15 07:14:37;;;;;;;56.75;40.50;;;6.00;68.80;;;;;;5042817;28;20033;-86
2022/01/15 07:17:04;;;;;;;62.30;41.80;;;6.00;68.90;;;;;;5058054;28;20037;-85
2022/01/15 07:19:31;;;;;;;57.50;42.13;;;6.00;69.00;;;;;;5057146;28;21856;-86
2022/01/15 07:21:57;;;;;;;58.55;41.63;;;6.00;69.10;;;;;;5042203;22;20050;-85
2022/01/15 07:24:23;;;;;;;51.75;39.20;;;6.00;69.20;;;;;;5017693;28;20038;-86
2022/01/15 07:26:49;;;;;;;55.70;40.92;;;6.00;69.20;;;;;;5017601;28;20103;-87
2022/01/15 07:29:16;;;;;;;52.00;39.05;;;6.00;69.20;;;;;;5016151;28;20121;-80
2022/01/15 07:31:47;;;;;;;53.28;39.50;;;6.10;69.20;;;;;;4995365;28;20041;-80
2022/01/15 07:34:14;;;;;;;53.13;37.70;;;6.10;69.20;;;;;;5010615;28;20038;-81
2022/01/15 07:36:40;;;;;;;50.05;38.75;;;6.20;69.50;;;;;;4997077;28;20497;-87
2022/01/15 07:39:08;;;;;;;52.38;37.58;;;6.30;69.10;;;;;;5024533;28;20061;-85
2022/01/15 07:41:34;;;;;;;48.03;35.08;;;6.30;69.20;;;;;;5016537;28;20065;-86
2022/01/15 07:44:00;;;;;;;50.80;36.03;;;6.40;69.10;;;;;;5017213;28;20119;-87
2022/01/15 07:46:40;;;;;;;46.20;34.63;;;6.40;69.00;;;;;;5000447;28;20410;-91
2022/01/15 07:49:06;;;;;;;50.28;35.28;;;6.50;69.10;;;;;;5000285;28;20135;-87
2022/01/15 07:51:32;;;;;;;46.22;34.75;;;6.50;69.10;;;;;;5018459;28;20477;-85
2022/01/15 07:53:58;;;;;;;51.88;36.20;;;6.60;68.50;;;;;;4999670;28;20062;-83
2022/01/15 07:56:24;;;;;;;45.50;35.35;;;6.60;68.40;;;;;;4991639;28;20151;-84
2022/01/15 07:58:50;;;;;;;47.05;35.17;;;6.60;68.50;;;;;;5015263;28;20041;-84
2022/01/15 08:01:17;;;;;;;48.28;35.05;;;6.60;68.80;;;;;;5013128;28;20386;-84
2022/01/15 08:03:43;;;;;;;46.65;33.45;;;6.60;68.70;;;;;;4990748;28;20065;-84
2022/01/15 08:06:10;;;;;;;45.17;34.15;;;6.60;68.90;;;;;;5014488;28;20044;-81
2022/01/15 08:08:36;;;;;;;43.75;30.40;;;6.60;69.00;;;;;;5012231;28;20118;-79
2022/01/15 08:11:03;;;;;;;41.40;32.30;;;6.60;69.10;;;;;;5010770;28;20109;-78
2022/01/15 08:13:31;;;;;;;44.28;32.83;;;6.60;69.20;;;;;;4994963;28;20048;-80
2022/01/15 08:16:08;;;;;;;43.88;31.67;;;6.60;69.30;;;;;;4996059;28;20037;-82
2022/01/15 08:18:34;;;;;;;40.08;29.70;;;6.60;69.60;;;;;;5009829;28;20137;-80
2022/01/15 08:21:01;;;;;;;42.58;30.52;;;6.70;70.20;;;;;;5008435;28;20113;-84
2022/01/15 08:23:27;;;;;;;45.08;31.83;;;6.70;70.00;;;;;;4993688;28;20042;-81
2022/01/15 08:25:53;;;;;;;41.00;30.88;;;6.70;70.00;;;;;;5015044;28;20029;-81
2022/01/15 08:28:19;;;;;;;41.70;32.20;;;6.80;70.00;;;;;;5013128;28;20100;-81
2022/01/15 08:30:55;;;;;;;38.40;29.27;;;6.80;70.00;;;;;;5014096;28;20034;-82
2022/01/15 08:33:21;;;;;;;38.50;29.38;;;6.90;69.90;;;;;;5015639;28;20046;-83
2022/01/15 08:35:46;;;;;;;38.35;28.98;;;6.90;69.70;;;;;;4995143;28;20244;-83
2022/01/15 08:38:12;;;;;;;41.47;30.15;;;7.00;69.70;;;;;;4997178;28;20084;-84
2022/01/15 08:40:39;;;;;;;40.47;29.35;;;7.10;69.60;;;;;;4995270;28;20045;-83
2022/01/15 08:43:05;;;;;;;38.55;30.33;;;7.20;69.40;;;;;;5014382;28;20564;-83
2022/01/15 08:45:31;;;;;;;38.50;29.70;;;7.20;69.30;;;;;;5019454;28;21620;-83
2022/01/15 08:47:57;;;;;;;40.75;31.45;;;7.30;69.20;;;;;;5024815;28;20041;-83
2022/01/15 08:50:24;;;;;;;41.80;32.05;;;7.50;69.20;;;;;;5015618;28;20096;-82
2022/01/15 08:52:49;;;;;;;35.83;28.20;;;7.60;69.00;;;;;;5006727;28;20046;-83
2022/01/15 08:55:17;;;;;;;38.33;28.52;;;7.70;67.80;;;;;;5014763;28;20042;-82
2022/01/15 08:57:44;;;;;;;37.00;28.58;;;7.90;67.60;;;;;;5014027;28;20508;-84
2022/01/15 09:00:13;;;;;;;39.30;28.40;;;8.00;67.30;;;;;;4996940;28;20466;-83
2022/01/15 09:02:40;;;;;;;36.90;28.70;;;8.20;67.00;;;;;;5015104;28;20047;-83
2022/01/15 09:05:06;;;;;;;41.65;29.10;;;8.30;66.60;;;;;;5013781;28;20285;-83
2022/01/15 09:07:32;;;;;;;41.72;30.70;;;8.50;66.00;;;;;;4980241;28;20030;-83
2022/01/15 09:09:57;;;;;;;39.78;31.27;;;8.60;65.20;;;;;;4997049;28;20113;-83
2022/01/15 09:12:23;;;;;;;40.72;29.42;;;8.60;64.70;;;;;;5012548;28;20042;-84
2022/01/15 09:14:54;;;;;;;38.92;29.02;;;8.70;63.80;;;;;;5014496;28;20041;-83
2022/01/15 09:17:20;;;;;;;36.85;29.33;;;8.70;64.20;;;;;;5013360;28;20041;-84
2022/01/15 09:19:46;;;;;;;38.92;29.27;;;8.80;64.40;;;;;;5014220;28;20038;-83
2022/01/15 09:22:11;;;;;;;38.45;29.83;;;8.80;64.20;;;;;;4989595;28;20430;-83
2022/01/15 09:24:38;;;;;;;37.28;29.25;;;8.90;64.20;;;;;;4994161;28;20050;-83
2022/01/15 09:30:12;;;;;;;40.72;29.48;;;9.00;64.20;;;;;;4986485;28;20037;-83
2022/01/15 09:30:34;;;;;;;39.88;29.70;;;9.10;64.20;;;;;;5013303;28;20041;-84
2022/01/15 09:32:36;;;;;;;35.35;26.90;;;9.20;64.20;;;;;;5004870;28;20033;-83
2022/01/15 09:35:03;;;;;;;31.63;25.02;;;9.20;62.70;;;;;;5011480;28;20453;-83
2022/01/15 09:37:28;;;;;;;31.98;25.33;;;9.20;62.90;;;;;;5012401;28;20077;-83
2022/01/15 09:39:54;;;;;;;31.70;26.17;;;9.30;62.70;;;;;;5011872;28;20073;-83
2022/01/15 09:42:22;;;;;;;35.15;27.38;;;9.30;62.60;;;;;;4995987;28;20511;-83
2022/01/15 09:44:48;;;;;;;32.42;26.55;;;9.40;62.70;;;;;;4996210;28;20125;-82
2022/01/15 09:47:16;;;;;;;33.00;25.23;;;9.50;62.80;;;;;;5013750;28;20441;-84
2022/01/15 09:49:44;;;;;;;34.95;27.10;;;9.60;62.90;;;;;;4996212;28;20180;-83
2022/01/15 09:52:13;;;;;;;33.95;26.25;;;9.70;62.90;;;;;;5014551;28;20049;-83
2022/01/15 09:54:40;;;;;;;37.58;28.90;;;9.80;63.00;;;;;;4993622;28;20446;-83
2022/01/15 09:57:06;;;;;;;39.90;31.23;;;9.90;61.90;;;;;;5000043;28;20092;-83
2022/01/15 09:59:32;;;;;;;43.33;33.25;;;9.90;61.70;;;;;;5014260;28;20128;-83
2022/01/15 10:02:02;;;;;;;48.25;34.50;;;9.80;61.40;;;;;;5013936;28;20042;-84
2022/01/15 10:04:32;;;;;;;40.63;30.50;;;9.80;60.40;;;;;;5013719;28;20354;-84
2022/01/15 10:07:16;;;;;;;39.27;31.03;;;9.70;61.40;;;;;;5011957;28;20033;-86
2022/01/15 10:09:43;;;;;;;39.67;30.88;;;9.90;61.30;;;;;;5010116;28;20034;-81
2022/01/15 10:12:11;;;;;;;33.72;27.08;;;10.00;61.30;;;;;;4993270;28;20049;-83
2022/01/15 10:14:40;;;;;;;39.85;30.83;;;10.10;63.20;;;;;;5011821;28;20050;-82
2022/01/15 10:17:27;;;;;;;42.55;29.88;;;10.30;63.90;;;;;;4991710;28;20125;-80
2022/01/15 10:19:54;;;;;;;39.38;29.92;;;10.50;64.70;;;;;;5011264;28;20092;-81
2022/01/15 10:22:24;;;;;;;38.53;29.03;;;10.60;64.20;;;;;;4951050;28;1376366;-81
2022/01/15 10:24:56;;;;;;;33.28;27.10;;;10.80;61.00;;;;;;4991252;28;20292;-80
2022/01/15 10:27:32;;;;;;;30.05;24.27;;;10.90;60.10;;;;;;4995635;28;20034;-81
2022/01/15 10:30:02;;;;;;;29.45;23.60;;;10.90;61.10;;;;;;5012761;28;20121;-81
2022/01/15 10:32:32;;;;;;;28.50;22.90;;;11.10;60.70;;;;;;5013311;28;20034;-81
2022/01/15 10:35:00;;;;;;;33.58;25.10;;;11.30;60.40;;;;;;5013625;28;20034;-80
2022/01/15 10:37:35;;;;;;;27.30;22.75;;;11.40;59.90;;;;;;5012440;28;20100;-81
2022/01/15 10:40:08;;;;;;;26.60;22.13;;;11.60;59.00;;;;;;5009251;28;20071;-80
2022/01/15 10:42:35;;;;;;;27.42;22.52;;;11.80;59.60;;;;;;5004745;28;20118;-82
2022/01/15 10:45:12;;;;;;;29.75;23.73;;;11.90;58.20;;;;;;4993344;28;20034;-80
2022/01/15 10:47:44;;;;;;;29.95;23.52;;;12.00;58.30;;;;;;4989849;28;20121;-79
2022/01/15 10:50:28;;;;;;;25.63;22.52;;;12.30;58.10;;;;;;5003723;28;20391;-77
2022/01/15 10:52:56;;;;;;;25.52;21.20;;;12.50;57.80;;;;;;5007433;28;20049;-79
2022/01/15 10:55:28;;;;;;;27.85;22.50;;;12.80;57.50;;;;;;5010487;28;20034;-78
2022/01/15 10:57:59;;;;;;;28.10;22.88;;;12.90;55.80;;;;;;4990810;28;20045;-81
2022/01/15 11:00:46;;;;;;;26.30;21.15;;;13.00;54.30;;;;;;5010818;28;20064;-81
2022/01/15 11:03:16;;;;;;;26.23;21.67;;;13.10;55.10;;;;;;5009364;28;20037;-81
2022/01/15 11:05:48;;;;;;;27.30;22.52;;;13.20;54.60;;;;;;4993918;28;20481;-80
2022/01/15 11:08:26;;;;;;;29.08;22.85;;;13.30;55.20;;;;;;5006272;28;20037;-79
2022/01/15 11:11:02;;;;;;;26.33;21.55;;;13.50;55.00;;;;;;5007737;28;20496;-79
2022/01/15 11:13:40;;;;;;;29.40;24.70;;;13.70;54.40;;;;;;4994918;28;20401;-81
2022/01/15 11:16:14;;;;;;;27.98;23.73;;;13.70;50.90;;;;;;5010322;28;20128;-82
2022/01/15 11:18:42;;;;;;;30.95;24.65;;;13.80;53.20;;;;;;5009920;28;20061;-83
2022/01/15 11:21:13;;;;;;;30.83;23.60;;;13.90;51.10;;;;;;4987503;28;20132;-80
2022/01/15 11:23:40;;;;;;;36.75;27.48;;;13.90;52.50;;;;;;4990986;28;20046;-81
2022/01/15 11:26:12;;;;;;;31.52;25.88;;;13.90;51.00;;;;;;5011442;28;20096;-85
2022/01/15 11:28:44;;;;;;;30.73;25.55;;;14.00;52.40;;;;;;4993072;28;20033;-86
2022/01/15 11:31:21;;;;;;;29.35;24.75;;;14.20;52.40;;;;;;4991454;28;20052;-85
2022/01/15 11:33:50;;;;;;;30.92;25.50;;;14.40;52.40;;;;;;4990651;28;20432;-86
2022/01/15 11:36:40;;;;;;;30.17;24.48;;;14.60;51.80;;;;;;5008769;28;20486;-85
2022/01/15 11:39:18;;;;;;;29.37;24.93;;;14.70;51.20;;;;;;4991039;28;20108;-85
2022/01/15 11:41:45;;;;;;;34.65;24.88;;;14.90;51.30;;;;;;5013315;28;20109;-84
2022/01/15 11:44:39;;;;;;;28.25;23.85;;;15.10;51.50;;;;;;4996962;28;20478;-84
2022/01/15 11:47:35;;;;;;;28.50;23.80;;;15.40;48.90;;;;;;4991918;28;20398;-85
2022/01/15 11:50:20;;;;;;;27.95;24.35;;;15.60;50.00;;;;;;4991298;28;20636;-85
2022/01/15 11:52:46;;;;;;;27.42;23.00;;;16.00;46.40;;;;;;4990697;28;20382;-85
2022/01/15 11:55:14;;;;;;;27.45;22.92;;;16.60;47.40;;;;;;4997353;28;20045;-85
2022/01/15 11:58:12;;;;;;;28.73;23.48;;;17.40;44.50;;;;;;4995166;28;20026;-85
2022/01/15 12:00:47;;;;;;;30.10;23.80;;;18.70;44.00;;;;;;4994434;28;20124;-83
2022/01/15 12:03:14;;;;;;;29.02;24.60;;;19.70;40.50;;;;;;5016705;28;20034;-84
2022/01/15 12:05:41;;;;;;;28.77;22.15;;;20.50;38.80;;;;;;5017509;28;20070;-84
2022/01/15 12:08:08;;;;;;;29.17;23.25;;;21.20;36.80;;;;;;5012342;28;20041;-84
2022/01/15 12:10:42;;;;;;;26.90;22.83;;;22.00;35.50;;;;;;5016016;28;20105;-83
2022/01/15 12:13:18;;;;;;;25.70;21.52;;;22.60;34.90;;;;;;5015496;28;20529;-84
2022/01/15 12:15:44;;;;;;;25.42;21.20;;;23.20;32.50;;;;;;4995470;28;20056;-83
2022/01/15 12:18:19;;;;;;;22.45;19.92;;;23.40;32.00;;;;;;5014942;28;20061;-84
2022/01/15 12:20:54;;;;;;;22.83;19.92;;;23.70;31.40;;;;;;5008919;28;20065;-84
2022/01/15 12:23:19;;;;;;;29.23;23.73;;;23.90;30.80;;;;;;5012795;28;20042;-83
2022/01/15 12:25:47;;;;;;;22.27;19.77;;;24.10;30.50;;;;;;5014620;28;20041;-83
2022/01/15 12:28:14;;;;;;;25.25;21.52;;;24.20;30.50;;;;;;5017796;28;20084;-84
2022/01/15 12:30:48;;;;;;;23.48;19.27;;;24.20;30.10;;;;;;4996780;28;20034;-85
2022/01/15 12:33:15;;;;;;;23.40;18.27;;;24.30;30.50;;;;;;5014736;28;20056;-84
2022/01/15 12:35:48;;;;;;;23.17;17.75;;;24.30;30.00;;;;;;5014845;28;20121;-83
2022/01/15 12:38:16;;;;;;;23.90;17.80;;;24.30;30.00;;;;;;4997674;28;20038;-87
2022/01/15 12:41:05;;;;;;;19.52;17.17;;;24.10;29.90;;;;;;5015702;28;20034;-84
2022/01/15 12:43:35;;;;;;;20.48;17.65;;;24.00;30.10;;;;;;4998849;28;20048;-84
2022/01/15 12:46:06;;;;;;;20.73;16.75;;;23.80;30.80;;;;;;4998227;28;20096;-84
2022/01/15 12:48:39;;;;;;;17.77;15.50;;;23.70;30.90;;;;;;4991953;28;20049;-86
2022/01/15 12:51:15;;;;;;;20.25;16.73;;;23.30;30.60;;;;;;5013540;28;20038;-86
2022/01/15 12:53:46;;;;;;;21.63;16.25;;;23.10;31.50;;;;;;5000005;28;20616;-85
2022/01/15 12:56:15;;;;;;;17.63;15.18;;;22.90;31.20;;;;;;5019951;28;20049;-85
2022/01/15 12:58:55;;;;;;;18.10;15.20;;;22.50;31.60;;;;;;5013628;28;20392;-86
2022/01/15 13:01:26;;;;;;;20.20;16.77;;;22.10;32.10;;;;;;4999226;28;20034;-85
2022/01/15 13:03:52;;;;;;;20.83;15.70;;;22.10;33.00;;;;;;5015807;28;20034;-85
2022/01/15 13:06:24;;;;;;;18.90;15.70;;;21.90;32.90;;;;;;5016726;28;20046;-85